createdAt,value
2018-10-19T00:01:26.851Z,70.57
2018-10-19T00:03:57.085Z,70.06
2018-10-19T00:06:27.191Z,70.52
2018-10-19T00:08:58.481Z,70.73
2018-10-19T00:11:28.469Z,70.57
2018-10-19T00:13:59.780Z,70.59
2018-10-19T00:16:30.137Z,70.16
2018-10-19T00:19:01.170Z,69.77
2018-10-19T00:21:31.837Z,70.53
2018-10-19T00:24:02.493Z,70.63
2018-10-19T00:26:33.654Z,70.54
2018-10-19T00:29:04.400Z,70.83
2018-10-19T00:31:34.244Z,70.67
2018-10-19T00:34:05.348Z,70.54
2018-10-19T00:36:36.085Z,69.92
2018-10-19T00:39:09.020Z,70.16
2018-10-19T00:41:39.194Z,69.60
2018-10-19T00:44:09.597Z,70.39
2018-10-19T00:46:39.704Z,70.39
2018-10-19T00:49:09.819Z,69.75
2018-10-19T00:51:41.112Z,70.12
2018-10-19T00:54:11.090Z,70.77
2018-10-19T00:56:41.109Z,70.61
2018-10-19T00:59:12.343Z,71.09
2018-10-19T01:01:42.320Z,70.89
2018-10-19T01:04:11.969Z,70.45
2018-10-19T01:06:42.836Z,71.39
2018-10-19T01:09:12.861Z,71.43
2018-10-19T01:11:43.375Z,71.24
2018-10-19T01:14:14.314Z,71.17
2018-10-19T01:16:44.411Z,70.90
2018-10-19T01:19:14.501Z,71.61
2018-10-19T01:21:44.740Z,71.09
2018-10-19T01:24:14.917Z,71.23
2018-10-19T01:26:44.900Z,71.57
2018-10-19T01:29:15.733Z,71.51
2018-10-19T01:31:45.616Z,71.18
2018-10-19T01:34:15.618Z,71.67
2018-10-19T01:36:46.302Z,71.67
2018-10-19T01:39:16.775Z,71.49
2018-10-19T01:41:46.561Z,70.97
2018-10-19T01:44:16.727Z,71.42
2018-10-19T01:46:49.543Z,71.77
2018-10-19T01:49:21.016Z,71.41
2018-10-19T01:51:51.339Z,71.62
2018-10-19T01:54:21.364Z,71.56
2018-10-19T01:56:51.011Z,71.76
2018-10-19T01:59:21.135Z,71.81
2018-10-19T02:01:50.772Z,71.73
2018-10-19T02:04:21.546Z,72.54
2018-10-19T02:06:51.831Z,72.86
2018-10-19T02:09:21.952Z,72.36
2018-10-19T02:11:51.581Z,72.41
2018-10-19T02:14:21.712Z,72.63
2018-10-19T02:16:52.070Z,72.39
2018-10-19T02:19:22.003Z,72.40
2018-10-19T02:21:52.493Z,72.76
2018-10-19T02:24:22.598Z,72.76
2018-10-19T02:26:53.489Z,72.52
2018-10-19T02:29:23.749Z,72.12
2018-10-19T02:31:54.880Z,72.31
2018-10-19T02:34:25.515Z,72.37
2018-10-19T02:36:56.488Z,72.24
2018-10-19T02:39:26.369Z,72.07
2018-10-19T02:41:56.244Z,71.67
2018-10-19T02:44:26.572Z,72.50
2018-10-19T02:46:56.593Z,71.70
2018-10-19T02:49:27.909Z,72.08
2018-10-19T02:51:58.472Z,72.19
2018-10-19T02:54:28.317Z,72.27
2018-10-19T02:56:58.533Z,72.98
2018-10-19T02:59:28.328Z,72.80
2018-10-19T03:01:59.632Z,72.24
2018-10-19T03:04:31.000Z,72.91
2018-10-19T03:07:01.033Z,72.39
2018-10-19T03:09:32.124Z,72.23
2018-10-19T03:12:04.539Z,73.08
2018-10-19T03:14:35.171Z,72.41
2018-10-19T03:17:05.648Z,72.61
2018-10-19T03:21:42.262Z,72.62
2018-10-19T03:24:13.525Z,73.46
2018-10-19T03:26:43.263Z,72.72
2018-10-19T03:29:14.817Z,73.50
2018-10-19T03:31:45.195Z,73.33
2018-10-19T03:34:14.928Z,72.64
2018-10-19T03:36:44.704Z,72.79
2018-10-19T03:39:15.967Z,73.41
2018-10-19T03:41:45.593Z,73.07
2018-10-19T03:44:15.201Z,73.61
2018-10-19T03:46:45.604Z,73.73
2018-10-19T03:49:16.232Z,73.40
2018-10-19T03:51:45.865Z,73.43
2018-10-19T03:54:16.269Z,73.77
2018-10-19T03:56:45.983Z,74.39
2018-10-19T03:59:16.301Z,74.35
2018-10-19T04:01:47.195Z,74.60
2018-10-19T04:04:17.906Z,75.28
2018-10-19T04:06:47.847Z,75.02
2018-10-19T04:09:18.219Z,75.45
2018-10-19T04:11:49.299Z,76.02
2018-10-19T04:14:21.189Z,75.51
2018-10-19T04:16:51.276Z,75.66
2018-10-19T04:19:21.892Z,75.30
2018-10-19T04:21:51.817Z,75.41
2018-10-19T04:24:22.041Z,74.20
2018-10-19T04:26:51.858Z,73.76
2018-10-19T04:29:21.841Z,74.18
2018-10-19T04:31:52.080Z,73.99
2018-10-19T04:34:22.756Z,74.51
2018-10-19T04:36:57.517Z,74.46
2018-10-19T04:39:27.430Z,74.41
2018-10-19T04:41:58.093Z,74.52
2018-10-19T04:44:27.868Z,74.88
2018-10-19T04:46:58.076Z,74.00
2018-10-19T04:49:28.657Z,74.00
2018-10-19T04:51:58.614Z,74.04
2018-10-19T04:54:28.842Z,74.11
2018-10-19T04:56:59.120Z,73.85
2018-10-19T04:59:31.493Z,73.59
2018-10-19T05:02:02.181Z,73.85
2018-10-19T05:04:33.153Z,73.87
2018-10-19T05:07:03.990Z,74.34
2018-10-19T05:09:34.100Z,74.90
2018-10-19T05:12:04.660Z,74.70
2018-10-19T05:14:36.155Z,75.12
2018-10-19T05:17:06.650Z,75.66
2018-10-19T05:19:38.543Z,75.17
2018-10-19T05:22:08.407Z,75.17
2018-10-19T05:24:38.720Z,75.08
2018-10-19T05:27:09.955Z,74.88
2018-10-19T05:29:40.355Z,74.34
2018-10-19T05:32:12.025Z,74.88
2018-10-19T05:34:42.394Z,74.10
2018-10-19T05:37:12.680Z,75.10
2018-10-19T05:39:42.783Z,75.05
2018-10-19T05:42:13.591Z,74.99
2018-10-19T05:44:44.041Z,74.12
2018-10-19T05:47:14.939Z,74.06
2018-10-19T05:49:44.958Z,73.91
2018-10-19T05:52:14.621Z,74.45
2018-10-19T05:54:44.707Z,74.33
2018-10-19T05:57:15.138Z,74.59
2018-10-19T05:59:45.060Z,74.37
2018-10-19T06:02:15.034Z,74.78
2018-10-19T06:04:45.187Z,74.77
2018-10-19T06:07:16.048Z,74.24
2018-10-19T06:09:46.351Z,74.62
2018-10-19T06:12:16.645Z,74.71
2018-10-19T06:14:48.390Z,74.17
2018-10-19T06:17:18.293Z,73.64
2018-10-19T06:19:48.775Z,74.01
2018-10-19T06:22:18.785Z,73.70
2018-10-19T06:24:48.500Z,74.16
2018-10-19T06:27:19.721Z,73.66
2018-10-19T06:29:49.668Z,73.88
2018-10-19T06:32:20.408Z,73.83
2018-10-19T06:34:50.743Z,73.26
2018-10-19T06:37:21.079Z,74.26
2018-10-19T06:39:51.122Z,74.07
2018-10-19T06:42:21.266Z,74.10
2018-10-19T06:44:51.425Z,73.54
2018-10-19T06:47:21.388Z,73.25
2018-10-19T06:49:52.041Z,73.97
2018-10-19T06:52:24.123Z,73.59
2018-10-19T06:54:54.826Z,73.40
2018-10-19T06:57:24.753Z,73.09
2018-10-19T06:59:54.818Z,73.06
2018-10-19T07:02:27.022Z,72.54
2018-10-19T07:04:56.924Z,72.50
2018-10-19T07:07:28.369Z,72.90
2018-10-19T07:09:58.243Z,72.74
2018-10-19T07:12:29.158Z,72.86
2018-10-19T07:14:59.213Z,72.37
2018-10-19T07:17:30.079Z,72.50
2018-10-19T07:20:00.338Z,72.10
2018-10-19T07:22:30.759Z,72.43
2018-10-19T07:25:00.788Z,72.38
2018-10-19T07:27:32.528Z,71.66
2018-10-19T07:30:03.484Z,70.80
2018-10-19T07:32:34.323Z,71.14
2018-10-19T07:35:05.314Z,71.48
2018-10-19T07:37:35.404Z,70.94
2018-10-19T07:40:06.230Z,71.18
2018-10-19T07:42:36.518Z,71.44
2018-10-19T07:45:08.237Z,70.92
2018-10-19T07:47:39.400Z,70.82
2018-10-19T07:50:10.847Z,69.69
2018-10-19T07:52:41.157Z,70.57
2018-10-19T07:55:13.090Z,70.62
2018-10-19T07:57:43.193Z,70.13
2018-10-19T08:00:12.900Z,69.77
2018-10-19T08:02:42.664Z,69.57
2018-10-19T08:05:12.855Z,69.41
2018-10-19T08:07:42.926Z,69.62
2018-10-19T08:10:13.216Z,68.81
2018-10-19T08:12:42.958Z,69.62
2018-10-19T08:15:12.489Z,69.37
2018-10-19T08:17:42.576Z,68.64
2018-10-19T08:20:12.515Z,68.65
2018-10-19T08:22:42.472Z,68.28
2018-10-19T08:25:12.631Z,68.45
2018-10-19T08:27:43.198Z,68.87
2018-10-19T08:30:13.591Z,68.90
2018-10-19T08:32:43.843Z,68.28
2018-10-19T08:35:14.397Z,67.78
2018-10-19T08:37:44.020Z,67.64
2018-10-19T08:40:13.447Z,66.70
2018-10-19T08:42:43.555Z,65.89
2018-10-19T08:45:13.255Z,66.33
2018-10-19T08:47:43.529Z,66.66
2018-10-19T08:50:13.639Z,66.39
2018-10-19T08:52:44.044Z,65.53
2018-10-19T08:55:32.281Z,65.93
2018-10-19T08:58:02.498Z,65.95
2018-10-19T09:00:33.422Z,65.40
2018-10-19T09:03:04.305Z,64.92
2018-10-19T09:05:36.138Z,65.38
2018-10-19T09:08:07.832Z,65.28
2018-10-19T09:10:37.963Z,64.86
2018-10-19T09:13:07.578Z,65.11
2018-10-19T09:15:38.263Z,64.59
2018-10-19T09:18:08.294Z,64.39
2018-10-19T09:20:38.651Z,63.25
2018-10-19T09:23:09.059Z,62.50
2018-10-19T09:25:39.847Z,62.72
2018-10-19T09:28:09.483Z,62.64
2018-10-19T09:30:40.208Z,62.42
2018-10-19T09:33:11.283Z,61.85
2018-10-19T09:35:41.084Z,62.46
2018-10-19T09:38:11.041Z,61.54
2018-10-19T09:40:41.718Z,62.18
2018-10-19T09:43:12.148Z,61.46
2018-10-19T09:45:42.349Z,61.01
2018-10-19T09:48:12.415Z,60.66
2018-10-19T09:50:42.781Z,60.14
2018-10-19T09:53:13.143Z,60.06
2018-10-19T09:55:53.412Z,59.21
2018-10-19T09:58:22.978Z,59.50
2018-10-19T10:00:58.072Z,59.54
2018-10-19T10:03:28.525Z,59.21
2018-10-19T10:05:58.358Z,58.71
2018-10-19T10:08:29.531Z,58.42
2018-10-19T10:10:59.536Z,57.76
2018-10-19T10:13:29.341Z,58.49
2018-10-19T10:15:59.559Z,57.34
2018-10-19T10:18:29.726Z,57.51
2018-10-19T10:21:00.554Z,56.92
2018-10-19T10:23:31.965Z,56.25
2018-10-19T10:26:02.316Z,56.48
2018-10-19T10:28:31.948Z,56.34
2018-10-19T10:31:02.648Z,56.11
2018-10-19T10:33:32.336Z,56.64
2018-10-19T10:36:02.505Z,56.22
2018-10-19T10:38:32.660Z,56.57
2018-10-19T10:41:03.455Z,55.43
2018-10-19T10:43:33.356Z,55.38
2018-10-19T10:46:04.238Z,54.62
2018-10-19T10:48:34.372Z,54.72
2018-10-19T10:51:04.328Z,54.68
2018-10-19T10:53:34.613Z,54.94
2018-10-19T10:56:04.268Z,54.56
2018-10-19T10:58:41.185Z,53.97
2018-10-19T11:01:13.552Z,53.97
2018-10-19T11:03:43.575Z,55.40
2018-10-19T11:06:14.854Z,55.37
2018-10-19T11:08:45.800Z,54.92
2018-10-19T11:11:16.309Z,55.69
2018-10-19T11:13:49.157Z,55.14
2018-10-19T11:16:20.325Z,54.69
2018-10-19T11:18:50.068Z,55.05
2018-10-19T11:21:20.388Z,55.37
2018-10-19T11:23:49.926Z,55.13
2018-10-19T11:26:19.394Z,54.39
2018-10-19T11:28:50.718Z,53.70
2018-10-19T11:31:20.757Z,54.08
2018-10-19T11:33:52.079Z,54.51
2018-10-19T11:36:23.277Z,54.17
2018-10-19T11:38:53.316Z,54.13
2018-10-19T11:41:23.189Z,53.51
2018-10-19T11:43:55.558Z,53.72
2018-10-19T11:46:27.579Z,53.12
2018-10-19T11:48:57.740Z,53.28
2018-10-19T11:51:28.114Z,53.17
2018-10-19T11:54:02.934Z,53.35
2018-10-19T11:56:33.742Z,52.66
2018-10-19T11:59:04.222Z,53.16
2018-10-19T12:01:34.099Z,52.09
2018-10-19T12:04:04.205Z,53.14
2018-10-19T12:06:34.113Z,51.94
2018-10-19T12:09:04.220Z,51.93
2018-10-19T12:11:34.148Z,51.51
2018-10-19T12:14:04.996Z,50.26
2018-10-19T12:16:36.232Z,51.14
2018-10-19T12:19:07.598Z,50.51
2018-10-19T12:21:38.326Z,50.61
2018-10-19T12:24:08.732Z,51.01
2018-10-19T12:26:39.002Z,50.48
2018-10-19T12:29:08.827Z,49.04
2018-10-19T12:31:38.870Z,48.18
2018-10-19T12:34:11.126Z,46.71
2018-10-19T12:36:46.232Z,45.57
2018-10-19T12:39:17.504Z,44.34
2018-10-19T12:41:47.941Z,44.97
2018-10-19T12:44:18.146Z,45.29
2018-10-19T12:46:59.038Z,45.33
2018-10-19T12:49:38.423Z,44.96
2018-10-19T12:52:09.919Z,44.37
2018-10-19T12:54:40.265Z,44.49
2018-10-19T12:57:10.418Z,43.63
2018-10-19T12:59:49.183Z,43.46
2018-10-19T13:02:19.002Z,42.89
2018-10-19T13:04:49.519Z,43.32
2018-10-19T13:07:23.167Z,43.38
2018-10-19T13:09:56.587Z,43.35
2018-10-19T13:12:27.836Z,44.39
2018-10-19T13:14:59.679Z,43.75
2018-10-19T13:17:32.468Z,43.99
2018-10-19T13:20:03.451Z,43.67
2018-10-19T13:22:35.829Z,43.45
2018-10-19T13:25:08.844Z,43.05
2018-10-19T13:27:40.022Z,43.01
2018-10-19T13:30:09.958Z,43.57
2018-10-19T13:32:43.427Z,42.53
2018-10-19T13:35:15.106Z,42.37
2018-10-19T13:37:45.459Z,42.62
2018-10-19T13:40:15.628Z,42.83
2018-10-19T13:42:45.865Z,43.32
2018-10-19T13:45:15.548Z,43.52
2018-10-19T13:47:48.262Z,42.10
2018-10-19T13:50:31.786Z,42.39
2018-10-19T13:53:06.305Z,42.81
2018-10-19T13:55:38.386Z,42.44
2018-10-19T13:58:08.536Z,42.22
2018-10-19T14:00:43.000Z,41.92
2018-10-19T14:03:18.639Z,42.31
2018-10-19T14:05:48.854Z,42.04
2018-10-19T14:08:18.938Z,42.93
2018-10-19T14:10:54.106Z,43.41
2018-10-19T14:13:25.210Z,42.84
2018-10-19T14:15:55.432Z,43.17
2018-10-19T14:18:25.601Z,43.56
2018-10-19T14:20:55.494Z,43.50
2018-10-19T14:23:25.410Z,43.06
2018-10-19T14:25:56.044Z,43.91
2018-10-19T14:28:30.043Z,43.68
2018-10-19T14:31:07.900Z,43.83
2018-10-19T14:33:40.022Z,43.72
2018-10-19T14:36:09.984Z,44.20
2018-10-19T14:38:46.932Z,44.54
2018-10-19T14:41:17.948Z,45.21
2018-10-19T14:43:47.928Z,45.60
2018-10-19T14:46:20.267Z,45.99
2018-10-19T14:48:56.221Z,45.57
2018-10-19T14:51:26.479Z,46.13
2018-10-19T14:53:58.730Z,46.58
2018-10-19T14:56:29.013Z,46.74
2018-10-19T14:58:58.817Z,48.12
2018-10-19T15:01:32.480Z,47.69
2018-10-19T15:04:06.732Z,48.17
2018-10-19T15:06:37.188Z,48.84
2018-10-19T15:09:13.090Z,48.55
2018-10-19T15:11:43.225Z,48.23
2018-10-19T15:14:17.275Z,49.19
2018-10-19T15:21:41.672Z,48.26
2018-10-19T15:24:12.564Z,47.73
2018-10-19T15:26:42.943Z,46.58
2018-10-19T15:29:16.729Z,46.75
2018-10-19T15:31:47.602Z,46.75
2018-10-19T15:34:20.040Z,47.66
2018-10-19T16:05:23.792Z,37.58
2018-10-19T16:07:52.926Z,39.14
2018-10-19T16:10:22.300Z,40.00
2018-10-19T16:12:51.288Z,41.62
2018-10-19T16:15:27.661Z,42.00
2018-10-19T16:17:56.649Z,43.33
2018-10-19T16:20:26.959Z,45.01
2018-10-19T16:22:55.549Z,45.45
2018-10-19T16:25:24.883Z,46.30
2018-10-19T16:27:53.898Z,47.67
2018-10-19T16:30:22.404Z,48.27
2018-10-19T16:32:51.003Z,48.50
2018-10-19T16:35:19.693Z,49.83
2018-10-19T16:37:48.206Z,49.83
2018-10-19T16:40:17.083Z,50.45
2018-10-19T16:42:46.050Z,50.86
2018-10-19T16:45:14.660Z,51.35
2018-10-19T16:47:43.512Z,51.67
2018-10-19T16:50:12.513Z,52.17
2018-10-19T16:52:41.209Z,52.15
2018-10-19T16:55:10.358Z,52.31
2018-10-19T16:57:39.467Z,52.95
2018-10-19T17:00:10.209Z,53.51
2018-10-19T17:02:39.038Z,53.86
2018-10-19T17:05:08.975Z,54.00
2018-10-19T17:07:37.957Z,53.78
2018-10-19T17:10:08.309Z,54.79
2018-10-19T17:12:37.066Z,54.76
2018-10-19T17:15:06.470Z,54.75
2018-10-19T17:17:36.205Z,55.44
2018-10-19T17:20:05.649Z,55.56
2018-10-19T17:22:34.277Z,56.07
2018-10-19T17:25:03.599Z,56.44
2018-10-19T17:27:32.723Z,55.76
2018-10-19T17:30:02.365Z,56.33
2018-10-19T17:32:32.181Z,56.46
2018-10-19T17:35:00.886Z,56.58
2018-10-19T17:37:33.200Z,56.62
2018-10-19T17:40:03.642Z,57.35
2018-10-19T17:42:32.753Z,56.98
2018-10-19T17:45:02.854Z,56.73
2018-10-19T17:47:32.422Z,57.11
2018-10-19T17:50:02.056Z,56.94
2018-10-19T17:52:33.557Z,57.11
2018-10-19T17:55:03.022Z,56.90
2018-10-19T17:57:34.873Z,57.22
2018-10-19T18:00:10.111Z,56.58
2018-10-19T18:02:42.071Z,56.66
2018-10-19T18:05:15.680Z,56.95
2018-10-19T18:07:49.730Z,56.85
2018-10-19T18:10:27.718Z,56.90
2018-10-19T18:13:04.507Z,57.04
2018-10-19T18:15:35.905Z,57.15
2018-10-19T18:18:09.140Z,56.97
2018-10-19T18:20:37.863Z,56.17
2018-10-19T18:23:09.501Z,56.73
2018-10-19T18:25:45.165Z,55.99
2018-10-19T18:28:17.717Z,55.95
2018-10-19T18:30:49.036Z,56.04
2018-10-19T18:33:17.843Z,55.68
2018-10-19T18:35:47.216Z,55.90
2018-10-19T18:38:17.979Z,56.06
2018-10-19T18:40:47.743Z,55.98
2018-10-19T18:43:20.058Z,55.66
2018-10-19T18:45:50.447Z,56.72
2018-10-19T18:48:20.090Z,55.48
2018-10-19T18:50:50.265Z,55.55
2018-10-19T18:53:20.000Z,56.24
2018-10-19T18:55:49.227Z,55.61
2018-10-19T18:58:19.108Z,55.82
2018-10-19T19:00:48.659Z,56.75
2018-10-19T19:03:19.049Z,56.06
2018-10-19T19:05:48.527Z,56.95
2018-10-19T19:08:18.140Z,57.48
2018-10-19T19:10:47.196Z,56.74
2018-10-19T19:13:22.197Z,56.52
2018-10-19T19:15:51.021Z,57.29
2018-10-19T19:18:20.439Z,56.86
2018-10-19T19:20:52.179Z,57.40
2018-10-19T19:23:22.027Z,56.56
2018-10-19T19:25:58.164Z,57.48
2018-10-19T19:28:29.198Z,57.54
2018-10-19T19:31:00.183Z,57.92
2018-10-19T19:33:38.012Z,57.72
2018-10-19T19:36:09.361Z,57.82
2018-10-19T19:38:39.286Z,57.48
2018-10-19T19:41:13.083Z,57.83
2018-10-19T19:43:41.625Z,58.03
2018-10-19T19:46:12.331Z,57.58
2018-10-19T19:48:46.814Z,57.96
2018-10-19T19:51:16.744Z,58.08
2018-10-19T19:53:46.726Z,58.01
2018-10-19T19:56:16.273Z,57.94
2018-10-19T19:58:44.862Z,58.52
2018-10-19T20:01:13.360Z,58.22
2018-10-19T20:03:42.069Z,57.82
2018-10-19T20:06:10.862Z,58.12
2018-10-19T20:08:39.698Z,58.28
2018-10-19T20:11:08.565Z,59.00
2018-10-19T20:13:37.332Z,58.78
2018-10-19T20:16:06.017Z,58.43
2018-10-19T20:18:34.605Z,59.15
2018-10-19T20:21:03.514Z,58.28
2018-10-19T20:23:32.692Z,58.43
2018-10-19T20:26:01.751Z,58.38
2018-10-19T20:28:31.132Z,58.22
2018-10-19T20:30:59.676Z,58.38
2018-10-19T20:33:28.781Z,58.10
2018-10-19T20:35:57.818Z,58.73
2018-10-19T20:38:28.231Z,58.88
2018-10-19T20:40:57.063Z,58.45
2018-10-19T20:43:25.847Z,59.09
2018-10-19T20:45:55.131Z,59.46
2018-10-19T20:48:23.589Z,59.05
2018-10-19T20:50:53.697Z,59.40
2018-10-19T20:53:22.487Z,59.43
2018-10-19T20:55:51.258Z,59.35
2018-10-19T20:58:20.431Z,59.31
2018-10-19T21:00:49.389Z,59.42
2018-10-19T21:03:18.024Z,59.37
2018-10-19T21:05:47.035Z,59.22
2018-10-19T21:08:15.909Z,59.47
2018-10-19T21:10:44.374Z,59.40
2018-10-19T21:13:13.209Z,59.44
2018-10-19T21:15:41.794Z,59.77
2018-10-19T21:18:10.437Z,59.83
2018-10-19T21:20:39.166Z,59.57
2018-10-19T21:23:08.741Z,59.56
2018-10-19T21:25:38.247Z,59.83
2018-10-19T21:28:08.095Z,60.23
2018-10-19T21:30:36.554Z,60.29
2018-10-19T21:33:05.197Z,60.55
2018-10-19T21:35:34.147Z,60.14
2018-10-19T21:38:03.554Z,60.31
2018-10-19T21:40:33.105Z,60.06
2018-10-19T21:43:01.741Z,60.12
2018-10-19T21:45:30.528Z,59.99
2018-10-19T21:47:59.111Z,60.12
2018-10-19T21:50:28.001Z,60.27
2018-10-19T21:52:56.811Z,60.58
2018-10-19T21:55:25.555Z,60.61
2018-10-19T21:57:54.174Z,61.26
2018-10-19T22:00:24.132Z,60.41
2018-10-19T22:02:52.947Z,60.83
2018-10-19T22:05:21.397Z,60.56
2018-10-19T22:07:50.171Z,60.32
2018-10-19T22:10:18.854Z,60.34
2018-10-19T22:12:47.295Z,60.27
2018-10-19T22:15:15.993Z,60.16
2018-10-19T22:17:44.544Z,61.04
2018-10-19T22:20:13.343Z,61.78
2018-10-19T22:22:42.495Z,61.94
2018-10-19T22:25:11.902Z,61.71
2018-10-19T22:27:40.564Z,62.60
2018-10-19T22:30:09.448Z,62.59
2018-10-19T22:32:38.678Z,63.72
2018-10-19T22:35:07.548Z,63.72
2018-10-19T22:37:36.582Z,63.98
2018-10-19T22:40:05.616Z,63.96
2018-10-19T22:42:34.422Z,64.60
2018-10-19T22:45:03.425Z,64.15
2018-10-19T22:47:31.907Z,64.44
2018-10-19T22:50:01.459Z,65.13
2018-10-19T22:52:30.549Z,65.12
2018-10-19T22:54:59.276Z,66.05
2018-10-19T22:57:28.691Z,65.60
2018-10-19T22:59:57.366Z,65.67
2018-10-19T23:02:26.516Z,65.99
2018-10-19T23:04:55.293Z,66.12
2018-10-19T23:07:24.019Z,66.48
2018-10-19T23:09:52.883Z,66.22
2018-10-19T23:12:21.511Z,66.42
2018-10-19T23:14:50.406Z,66.80
2018-10-19T23:17:19.279Z,66.11
2018-10-19T23:19:47.961Z,66.67
2018-10-19T23:22:17.015Z,66.69
2018-10-19T23:24:45.846Z,67.08
2018-10-19T23:27:14.442Z,67.39
2018-10-19T23:29:43.248Z,67.75
2018-10-19T23:32:12.376Z,67.70
2018-10-19T23:34:41.164Z,68.17
2018-10-19T23:37:10.782Z,68.16
2018-10-19T23:39:39.508Z,68.67
2018-10-19T23:42:08.299Z,68.23
2018-10-19T23:44:37.492Z,67.98
2018-10-19T23:47:06.181Z,68.58
2018-10-19T23:49:34.912Z,68.48
2018-10-19T23:52:04.256Z,68.35
2018-10-19T23:54:33.130Z,68.26
2018-10-19T23:57:01.799Z,68.15
2018-10-19T23:59:31.186Z,67.74
